createdAt,value
2022-10-25T00:01:38.251Z,93.55
2022-10-25T00:03:42.475Z,93.27
2022-10-25T00:05:45.059Z,93.26
2022-10-25T00:07:47.794Z,92.89
2022-10-25T00:09:50.641Z,92.64
2022-10-25T00:11:53.300Z,92.91
2022-10-25T00:13:57.874Z,92.71
2022-10-25T00:16:00.582Z,92.95
2022-10-25T00:18:03.212Z,93.14
2022-10-25T00:20:08.323Z,92.66
2022-10-25T00:22:10.948Z,92.65
2022-10-25T00:24:14.658Z,93.25
2022-10-25T00:26:17.402Z,93.21
2022-10-25T00:28:20.040Z,92.73
2022-10-25T00:30:22.653Z,92.83
2022-10-25T00:32:25.512Z,93.47
2022-10-25T00:34:28.159Z,93.36
2022-10-25T00:36:32.394Z,93.22
2022-10-25T00:38:35.754Z,93.08
2022-10-25T00:40:38.371Z,93.38
2022-10-25T00:42:41.012Z,92.92
2022-10-25T00:44:56.235Z,92.97
2022-10-25T00:46:59.480Z,92.80
2022-10-25T00:49:05.987Z,92.93
2022-10-25T00:51:09.808Z,92.33
2022-10-25T00:53:16.080Z,92.00
2022-10-25T00:55:21.707Z,91.52
2022-10-25T00:57:30.917Z,91.25
2022-10-25T00:59:33.694Z,90.59
2022-10-25T01:01:37.058Z,90.57
2022-10-25T01:03:42.111Z,90.46
2022-10-25T01:05:45.530Z,90.36
2022-10-25T01:07:48.600Z,89.73
2022-10-25T01:09:53.376Z,90.00
2022-10-25T01:11:56.126Z,89.58
2022-10-25T01:13:59.581Z,89.63
2022-10-25T01:16:12.182Z,88.97
2022-10-25T01:18:19.798Z,89.11
2022-10-25T01:20:58.348Z,89.11
2022-10-25T01:23:04.958Z,88.30
2022-10-25T01:25:46.091Z,88.34
2022-10-25T01:27:58.314Z,88.38
2022-10-25T01:30:16.174Z,88.86
2022-10-25T01:32:25.629Z,87.17
2022-10-25T01:34:33.019Z,88.09
2022-10-25T01:36:46.646Z,87.10
2022-10-25T01:38:54.856Z,87.47
2022-10-25T01:41:06.979Z,88.25
2022-10-25T01:43:15.693Z,87.98
2022-10-25T01:45:25.459Z,88.04
2022-10-25T01:47:35.404Z,88.13
2022-10-25T01:49:46.208Z,87.21
2022-10-25T01:51:48.814Z,87.04
2022-10-25T01:53:52.963Z,87.66
2022-10-25T01:56:00.116Z,86.92
2022-10-25T01:58:11.737Z,87.14
2022-10-25T02:00:17.845Z,86.76
2022-10-25T02:02:27.049Z,86.71
2022-10-25T02:04:44.764Z,85.82
2022-10-25T02:06:56.638Z,86.01
2022-10-25T02:09:06.921Z,86.61
2022-10-25T02:11:20.845Z,87.52
2022-10-25T02:13:28.223Z,86.81
2022-10-25T02:15:36.428Z,85.56
2022-10-25T02:17:44.886Z,85.97
2022-10-25T02:19:52.365Z,86.33
2022-10-25T02:21:56.463Z,85.97
2022-10-25T02:24:00.933Z,85.63
2022-10-25T02:26:05.968Z,85.59
2022-10-25T02:28:11.551Z,85.54
2022-10-25T02:30:14.464Z,85.45
2022-10-25T02:32:17.352Z,86.17
2022-10-25T02:34:20.314Z,85.73
2022-10-25T02:36:25.520Z,85.85
2022-10-25T02:38:28.175Z,85.48
2022-10-25T02:40:31.146Z,85.68
2022-10-25T02:42:33.812Z,85.32
2022-10-25T02:44:36.438Z,85.44
2022-10-25T02:46:39.034Z,85.12
2022-10-25T02:48:42.303Z,85.18
2022-10-25T02:50:44.892Z,85.72
2022-10-25T02:52:49.157Z,85.88
2022-10-25T02:54:52.089Z,85.64
2022-10-25T02:56:54.889Z,85.50
2022-10-25T02:58:59.186Z,84.96
2022-10-25T03:01:02.420Z,85.18
2022-10-25T03:03:05.108Z,85.49
2022-10-25T03:05:08.248Z,86.04
2022-10-25T03:07:10.868Z,86.20
2022-10-25T03:09:14.884Z,85.45
2022-10-25T03:11:17.871Z,85.28
2022-10-25T03:13:20.656Z,84.95
2022-10-25T03:15:23.371Z,85.21
2022-10-25T03:17:25.939Z,84.95
2022-10-25T03:19:28.529Z,85.46
2022-10-25T03:21:31.117Z,84.70
2022-10-25T03:23:34.088Z,84.99
2022-10-25T03:25:38.100Z,85.85
2022-10-25T03:27:40.777Z,85.48
2022-10-25T03:29:43.449Z,85.72
2022-10-25T03:31:46.020Z,85.41
2022-10-25T03:33:51.074Z,84.92
2022-10-25T03:35:54.452Z,85.32
2022-10-25T03:37:57.028Z,85.97
2022-10-25T03:39:59.746Z,85.34
2022-10-25T03:42:03.669Z,85.17
2022-10-25T03:44:06.439Z,85.01
2022-10-25T03:46:09.096Z,84.99
2022-10-25T03:48:11.947Z,85.49
2022-10-25T03:50:14.859Z,85.15
2022-10-25T03:52:17.461Z,85.55
2022-10-25T03:54:20.053Z,84.77
2022-10-25T03:56:23.373Z,85.58
2022-10-25T03:58:27.385Z,85.05
2022-10-25T04:00:30.718Z,85.34
2022-10-25T04:02:33.358Z,85.57
2022-10-25T04:04:35.957Z,86.05
2022-10-25T04:06:38.593Z,86.58
2022-10-25T04:08:41.192Z,86.62
2022-10-25T04:10:43.770Z,86.58
2022-10-25T04:12:46.450Z,86.75
2022-10-25T04:14:50.499Z,86.11
2022-10-25T04:16:53.110Z,86.43
2022-10-25T04:18:57.251Z,86.61
2022-10-25T04:20:59.941Z,86.45
2022-10-25T04:23:02.782Z,86.42
2022-10-25T04:25:06.112Z,86.37
2022-10-25T04:27:08.726Z,86.54
2022-10-25T04:29:12.583Z,87.35
2022-10-25T04:31:16.747Z,86.63
2022-10-25T04:33:19.345Z,86.78
2022-10-25T04:35:21.965Z,86.98
2022-10-25T04:37:24.692Z,87.03
2022-10-25T04:39:27.364Z,86.31
2022-10-25T04:41:29.982Z,85.98
2022-10-25T04:43:32.646Z,85.42
2022-10-25T04:45:35.237Z,86.09
2022-10-25T04:47:39.192Z,86.07
2022-10-25T04:49:41.828Z,85.68
2022-10-25T04:51:44.794Z,85.74
2022-10-25T04:53:47.415Z,85.85
2022-10-25T04:55:56.937Z,85.96
2022-10-25T04:57:59.758Z,86.04
2022-10-25T05:00:02.390Z,85.48
2022-10-25T05:02:05.490Z,85.43
2022-10-25T05:04:09.492Z,86.05
2022-10-25T05:06:14.228Z,86.22
2022-10-25T05:08:17.029Z,86.01
2022-10-25T05:10:19.636Z,85.56
2022-10-25T05:12:24.126Z,85.66
2022-10-25T05:14:26.755Z,86.04
2022-10-25T05:16:29.471Z,85.61
2022-10-25T05:18:32.565Z,85.84
2022-10-25T05:20:36.546Z,85.67
2022-10-25T05:22:39.131Z,85.45
2022-10-25T05:24:41.704Z,85.83
2022-10-25T05:26:44.327Z,85.72
2022-10-25T05:28:49.994Z,85.82
2022-10-25T05:30:52.564Z,85.57
2022-10-25T05:32:55.155Z,85.44
2022-10-25T05:34:57.882Z,85.06
2022-10-25T05:37:01.863Z,85.62
2022-10-25T05:39:04.692Z,85.76
2022-10-25T05:41:08.640Z,85.91
2022-10-25T05:43:11.196Z,84.38
2022-10-25T05:45:13.806Z,84.83
2022-10-25T05:47:16.407Z,84.75
2022-10-25T05:49:19.141Z,84.96
2022-10-25T05:51:39.318Z,84.91
2022-10-25T05:53:47.489Z,84.81
2022-10-25T05:55:50.290Z,85.03
2022-10-25T05:57:53.065Z,85.13
2022-10-25T05:59:55.643Z,85.17
2022-10-25T06:01:58.443Z,84.81
2022-10-25T06:04:01.209Z,84.67
2022-10-25T06:06:05.538Z,84.04
2022-10-25T06:08:08.110Z,84.79
2022-10-25T06:10:12.231Z,84.53
2022-10-25T06:12:14.842Z,84.42
2022-10-25T06:14:17.528Z,84.27
2022-10-25T06:16:21.315Z,84.18
2022-10-25T06:18:24.297Z,84.33
2022-10-25T06:20:26.925Z,84.27
2022-10-25T06:22:29.587Z,84.64
2022-10-25T06:24:32.164Z,84.50
2022-10-25T06:26:36.364Z,84.07
2022-10-25T06:28:39.638Z,84.06
2022-10-25T06:30:42.244Z,84.44
2022-10-25T06:32:44.948Z,83.39
2022-10-25T06:34:47.777Z,84.27
2022-10-25T06:36:50.404Z,84.13
2022-10-25T06:38:53.039Z,83.53
2022-10-25T06:40:59.890Z,83.70
2022-10-25T06:43:03.862Z,83.36
2022-10-25T06:45:07.461Z,83.66
2022-10-25T06:47:17.451Z,83.39
2022-10-25T06:49:20.451Z,83.44
2022-10-25T06:51:23.720Z,83.35
2022-10-25T06:53:27.010Z,83.90
2022-10-25T06:55:29.615Z,83.34
2022-10-25T06:57:32.221Z,82.97
2022-10-25T06:59:36.208Z,83.46
2022-10-25T07:01:38.906Z,83.20
2022-10-25T07:03:42.130Z,83.31
2022-10-25T07:05:44.754Z,83.34
2022-10-25T07:07:47.629Z,84.04
2022-10-25T07:09:50.411Z,84.14
2022-10-25T07:11:53.070Z,84.09
2022-10-25T07:13:58.379Z,84.81
2022-10-25T07:16:04.279Z,85.09
2022-10-25T07:18:06.953Z,84.85
2022-10-25T07:20:10.479Z,85.14
2022-10-25T07:22:13.085Z,85.17
2022-10-25T07:24:15.663Z,84.71
2022-10-25T07:26:20.714Z,84.70
2022-10-25T07:28:23.360Z,85.32
2022-10-25T07:30:25.966Z,85.31
2022-10-25T07:32:29.921Z,85.15
2022-10-25T07:34:32.501Z,84.62
2022-10-25T07:36:35.152Z,84.32
2022-10-25T07:38:38.061Z,83.53
2022-10-25T07:40:40.941Z,83.89
2022-10-25T07:42:43.560Z,82.80
2022-10-25T07:46:55.404Z,82.07
2022-10-25T07:48:59.360Z,81.86
2022-10-25T07:51:04.599Z,82.61
2022-10-25T07:53:07.566Z,81.50
2022-10-25T07:55:10.468Z,82.21
2022-10-25T07:57:13.055Z,81.81
2022-10-25T07:59:15.658Z,81.60
2022-10-25T08:01:21.620Z,81.24
2022-10-25T08:03:24.269Z,81.10
2022-10-25T08:05:28.319Z,81.51
2022-10-25T08:07:30.921Z,82.01
2022-10-25T08:09:38.010Z,81.01
2022-10-25T08:11:41.112Z,80.33
2022-10-25T08:13:43.731Z,81.78
2022-10-25T08:15:51.105Z,81.11
2022-10-25T08:17:58.910Z,80.14
2022-10-25T08:20:01.981Z,79.92
2022-10-25T08:22:05.998Z,80.24
2022-10-25T08:24:09.064Z,79.59
2022-10-25T08:26:11.814Z,79.63
2022-10-25T08:28:14.758Z,80.81
2022-10-25T08:30:17.512Z,80.02
2022-10-25T08:32:20.104Z,78.44
2022-10-25T08:34:22.692Z,79.22
2022-10-25T08:36:26.482Z,79.23
2022-10-25T08:38:30.725Z,79.66
2022-10-25T08:40:44.166Z,79.38
2022-10-25T08:43:00.011Z,77.92
2022-10-25T08:45:11.056Z,77.76
2022-10-25T08:47:19.918Z,79.01
2022-10-25T08:49:26.655Z,78.00
2022-10-25T08:51:33.689Z,78.67
2022-10-25T08:53:40.905Z,78.67
2022-10-25T08:55:58.648Z,78.71
2022-10-25T08:58:15.742Z,78.75
2022-10-25T09:00:20.921Z,76.64
2022-10-25T09:02:33.298Z,76.89
2022-10-25T09:04:35.950Z,77.28
2022-10-25T09:06:46.133Z,76.28
2022-10-25T09:09:01.167Z,75.18
2022-10-25T09:11:11.703Z,75.14
2022-10-25T09:13:26.275Z,74.54
2022-10-25T09:15:44.151Z,73.67
2022-10-25T09:17:50.991Z,72.98
2022-10-25T09:20:05.730Z,73.30
2022-10-25T09:22:15.413Z,73.72
2022-10-25T09:24:23.848Z,73.15
2022-10-25T09:26:39.357Z,73.71
2022-10-25T09:28:52.264Z,73.17
2022-10-25T09:30:58.240Z,73.47
2022-10-25T09:33:03.888Z,74.00
2022-10-25T09:35:13.797Z,74.46
2022-10-25T09:37:22.860Z,74.02
2022-10-25T09:39:34.804Z,75.21
2022-10-25T09:41:43.348Z,74.03
2022-10-25T09:43:52.005Z,74.56
2022-10-25T09:45:57.961Z,74.29
2022-10-25T09:48:08.444Z,73.79
2022-10-25T09:50:17.470Z,74.32
2022-10-25T09:52:26.850Z,73.92
2022-10-25T09:54:36.354Z,73.67
2022-10-25T09:56:40.477Z,73.87
2022-10-25T09:58:44.910Z,75.20
2022-10-25T10:00:47.687Z,74.53
2022-10-25T10:02:50.493Z,73.90
2022-10-25T10:04:53.843Z,73.32
2022-10-25T10:07:00.288Z,72.58
2022-10-25T10:09:07.385Z,72.26
2022-10-25T10:11:16.762Z,71.50
2022-10-25T10:13:28.831Z,70.96
2022-10-25T10:15:32.736Z,70.90
2022-10-25T10:17:35.310Z,71.48
2022-10-25T10:19:37.928Z,71.63
2022-10-25T10:21:44.489Z,69.62
2022-10-25T10:23:54.213Z,70.68
2022-10-25T10:25:57.057Z,70.40
2022-10-25T10:28:01.052Z,72.04
2022-10-25T10:30:08.637Z,71.44
2022-10-25T10:32:25.208Z,70.74
2022-10-25T10:34:30.752Z,72.25
2022-10-25T10:36:34.113Z,71.21
2022-10-25T10:38:36.683Z,71.93
2022-10-25T10:40:39.306Z,72.39
2022-10-25T10:42:42.636Z,72.48
2022-10-25T10:45:03.055Z,70.81
2022-10-25T10:47:11.949Z,71.50
2022-10-25T10:49:15.869Z,70.78
2022-10-25T10:51:39.293Z,71.19
2022-10-25T10:53:44.706Z,70.92
2022-10-25T10:55:49.409Z,68.35
2022-10-25T10:57:53.890Z,68.08
2022-10-25T10:59:58.534Z,67.62
2022-10-25T11:02:12.940Z,69.65
2022-10-25T11:04:15.687Z,66.76
2022-10-25T11:06:24.849Z,67.54
2022-10-25T11:08:27.538Z,68.30
2022-10-25T11:10:32.414Z,67.22
2022-10-25T11:12:40.221Z,67.59
2022-10-25T11:14:43.782Z,69.76
2022-10-25T11:16:59.124Z,68.05
2022-10-25T11:19:27.202Z,66.50
2022-10-25T11:21:44.195Z,67.54
2022-10-25T11:24:00.093Z,68.90
2022-10-25T11:26:11.375Z,70.86
2022-10-25T11:28:41.622Z,69.13
2022-10-25T11:30:54.838Z,69.53
2022-10-25T11:33:09.610Z,70.02
2022-10-25T11:35:28.150Z,69.04
2022-10-25T11:37:34.024Z,68.25
2022-10-25T11:39:48.695Z,67.48
2022-10-25T11:41:56.290Z,66.98
2022-10-25T11:44:24.219Z,64.97
2022-10-25T11:46:35.789Z,66.40
2022-10-25T11:49:05.435Z,66.17
2022-10-25T11:51:16.045Z,63.83
2022-10-25T11:53:32.505Z,64.48
2022-10-25T11:55:41.954Z,62.54
2022-10-25T11:57:52.091Z,63.63
2022-10-25T12:00:04.170Z,62.31
2022-10-25T12:02:23.546Z,63.49
2022-10-25T12:04:52.461Z,62.76
2022-10-25T12:07:05.024Z,64.33
2022-10-25T12:09:17.244Z,62.28
2022-10-25T12:11:26.284Z,61.73
2022-10-25T12:13:32.415Z,61.89
2022-10-25T12:15:39.829Z,62.74
2022-10-25T12:17:42.693Z,63.95
2022-10-25T12:19:49.395Z,64.89
2022-10-25T12:21:57.816Z,64.94
2022-10-25T12:24:05.210Z,65.25
2022-10-25T12:26:13.973Z,65.47
2022-10-25T12:28:23.934Z,63.48
2022-10-25T12:32:39.011Z,63.43
2022-10-25T12:34:45.778Z,63.50
2022-10-25T12:36:53.868Z,63.74
2022-10-25T12:38:59.944Z,63.63
2022-10-25T12:41:08.703Z,63.19
2022-10-25T12:43:18.041Z,63.82
2022-10-25T12:45:47.736Z,64.91
2022-10-25T12:48:03.187Z,63.66
2022-10-25T12:50:31.160Z,63.44
2022-10-25T12:52:38.730Z,63.98
2022-10-25T12:55:03.850Z,61.62
2022-10-25T12:57:17.685Z,63.19
2022-10-25T12:59:38.146Z,63.72
2022-10-25T13:02:04.949Z,63.92
2022-10-25T13:04:58.494Z,64.30
2022-10-25T13:07:04.152Z,63.88
2022-10-25T13:09:11.552Z,64.90
2022-10-25T13:11:14.426Z,64.68
2022-10-25T13:13:19.784Z,65.07
2022-10-25T13:15:22.420Z,64.22
2022-10-25T13:17:59.735Z,63.63
2022-10-25T13:20:35.835Z,66.46
2022-10-25T13:22:39.780Z,64.72
2022-10-25T13:24:45.068Z,63.86
2022-10-25T13:27:19.736Z,63.34
2022-10-25T13:29:48.397Z,62.60
2022-10-25T13:32:08.804Z,63.43
2022-10-25T13:34:34.398Z,63.86
2022-10-25T13:36:47.965Z,64.14
2022-10-25T13:39:06.941Z,64.15
2022-10-25T13:41:16.230Z,64.43
2022-10-25T13:43:21.153Z,64.55
2022-10-25T13:45:35.556Z,63.64
2022-10-25T13:47:41.548Z,63.49
2022-10-25T13:49:45.143Z,64.57
2022-10-25T13:51:48.203Z,64.70
2022-10-25T13:53:53.973Z,65.51
2022-10-25T13:56:05.281Z,65.39
2022-10-25T13:58:44.246Z,65.05
2022-10-25T14:00:52.295Z,64.19
2022-10-25T14:03:22.341Z,64.71
2022-10-25T14:06:16.257Z,64.98
2022-10-25T14:08:23.772Z,65.13
2022-10-25T14:10:34.291Z,65.63
2022-10-25T14:12:37.617Z,65.99
2022-10-25T14:14:53.492Z,65.94
2022-10-25T14:17:11.606Z,64.57
2022-10-25T14:19:18.824Z,64.63
2022-10-25T14:21:21.735Z,66.72
2022-10-25T14:23:27.753Z,67.44
2022-10-25T14:25:35.387Z,68.30
2022-10-25T14:27:38.453Z,68.80
2022-10-25T14:29:41.081Z,69.86
2022-10-25T14:31:45.034Z,70.12
2022-10-25T14:33:52.961Z,69.60
2022-10-25T14:35:58.792Z,70.49
2022-10-25T14:38:02.394Z,68.24
2022-10-25T14:40:16.632Z,70.38
2022-10-25T14:42:19.499Z,69.40
2022-10-25T14:44:25.555Z,69.02
2022-10-25T14:46:30.208Z,69.12
2022-10-25T14:48:34.687Z,67.41
2022-10-25T14:50:39.898Z,67.47
2022-10-25T14:52:44.903Z,68.76
2022-10-25T14:54:54.916Z,69.17
2022-10-25T14:57:00.362Z,68.60
2022-10-25T14:59:04.974Z,69.74
2022-10-25T15:01:10.080Z,68.36
2022-10-25T15:03:14.402Z,67.89
2022-10-25T15:05:22.156Z,68.94
2022-10-25T15:07:27.829Z,67.97
2022-10-25T15:09:42.210Z,68.75
2022-10-25T15:12:04.728Z,67.88
2022-10-25T15:14:21.261Z,67.97
2022-10-25T15:16:30.992Z,67.79
2022-10-25T15:18:36.238Z,67.71
2022-10-25T15:20:40.176Z,68.28
2022-10-25T15:22:45.014Z,68.89
2022-10-25T15:24:48.927Z,69.36
2022-10-25T15:26:53.745Z,71.36
2022-10-25T15:28:58.915Z,71.73
2022-10-25T15:31:05.104Z,73.01
2022-10-25T15:33:12.087Z,73.31
2022-10-25T15:35:21.818Z,73.79
2022-10-25T15:37:27.236Z,71.77
2022-10-25T15:39:32.480Z,72.43
2022-10-25T15:41:36.517Z,71.62
2022-10-25T15:43:39.102Z,70.63
2022-10-25T15:45:42.440Z,71.05
2022-10-25T15:47:47.494Z,71.85
2022-10-25T15:49:53.058Z,72.31
2022-10-25T15:51:56.039Z,72.22
2022-10-25T15:54:00.160Z,72.96
2022-10-25T15:56:03.612Z,72.32
2022-10-25T15:58:09.759Z,73.23
2022-10-25T16:00:15.652Z,73.88
2022-10-25T16:02:21.068Z,74.47
2022-10-25T16:04:23.764Z,75.93
2022-10-25T16:06:26.382Z,76.72
2022-10-25T16:08:29.046Z,77.16
2022-10-25T16:10:33.127Z,77.43
2022-10-25T16:12:35.888Z,78.07
2022-10-25T16:14:38.744Z,78.83
2022-10-25T16:16:42.810Z,78.78
2022-10-25T16:18:45.473Z,79.03
2022-10-25T16:20:48.709Z,77.47
2022-10-25T16:22:51.994Z,78.05
2022-10-25T16:24:55.090Z,78.51
2022-10-25T16:27:00.781Z,78.84
2022-10-25T16:29:03.569Z,79.19
2022-10-25T16:31:06.474Z,79.86
2022-10-25T16:33:09.164Z,79.73
2022-10-25T16:35:13.645Z,79.20
2022-10-25T16:37:16.309Z,80.22
2022-10-25T16:39:18.985Z,79.64
2022-10-25T16:41:24.434Z,79.71
2022-10-25T16:43:28.418Z,78.80
2022-10-25T16:45:33.845Z,78.92
2022-10-25T16:47:36.867Z,78.70
2022-10-25T16:49:39.468Z,79.22
2022-10-25T16:51:44.076Z,79.33
2022-10-25T16:53:47.830Z,80.15
2022-10-25T16:55:50.411Z,80.62
2022-10-25T16:57:53.085Z,81.15
2022-10-25T16:59:57.376Z,82.22
2022-10-25T17:02:00.298Z,81.44
2022-10-25T17:04:03.909Z,80.55
2022-10-25T17:06:22.307Z,80.44
2022-10-25T17:08:29.396Z,81.90
2022-10-25T17:10:31.992Z,82.33
2022-10-25T17:12:34.582Z,81.75
2022-10-25T17:14:37.293Z,81.81
2022-10-25T17:16:43.452Z,81.79
2022-10-25T17:18:46.073Z,81.49
2022-10-25T17:20:49.944Z,81.83
2022-10-25T17:22:54.155Z,82.63
2022-10-25T17:24:56.858Z,83.22
2022-10-25T17:26:59.559Z,83.23
2022-10-25T17:29:02.208Z,82.33
2022-10-25T17:31:08.850Z,83.76
2022-10-25T17:33:12.829Z,83.48
2022-10-25T17:35:15.443Z,83.17
2022-10-25T17:37:18.047Z,84.26
2022-10-25T17:39:20.633Z,84.94
2022-10-25T17:41:23.284Z,84.58
2022-10-25T17:43:25.926Z,85.55
2022-10-25T17:45:28.529Z,85.35
2022-10-25T17:47:31.154Z,86.56
2022-10-25T17:49:35.185Z,86.28
2022-10-25T17:51:37.846Z,85.81
2022-10-25T17:53:40.635Z,85.72
2022-10-25T17:55:43.227Z,86.12
2022-10-25T17:57:46.791Z,86.82
2022-10-25T17:59:50.334Z,86.79
2022-10-25T18:01:53.008Z,86.25
2022-10-25T18:03:56.337Z,86.56
2022-10-25T18:06:02.521Z,85.45
2022-10-25T18:08:06.737Z,85.95
2022-10-25T18:10:09.994Z,86.84
2022-10-25T18:12:12.570Z,86.94
2022-10-25T18:14:15.305Z,87.01
2022-10-25T18:16:18.443Z,87.13
2022-10-25T18:18:21.282Z,87.28
2022-10-25T18:20:25.196Z,87.87
2022-10-25T18:22:29.176Z,87.84
2022-10-25T18:24:33.286Z,88.00
2022-10-25T18:26:36.482Z,87.74
2022-10-25T18:28:39.538Z,88.00
2022-10-25T18:30:42.170Z,88.08
2022-10-25T18:32:44.768Z,87.43
2022-10-25T18:34:47.597Z,87.29
2022-10-25T18:36:50.206Z,87.10
2022-10-25T18:38:55.413Z,86.81
2022-10-25T18:40:58.067Z,86.71
2022-10-25T18:43:00.761Z,86.90
2022-10-25T18:45:05.081Z,87.24
2022-10-25T18:47:07.725Z,87.63
2022-10-25T18:49:12.758Z,87.18
2022-10-25T18:51:16.144Z,88.18
2022-10-25T18:53:19.048Z,88.02
2022-10-25T18:55:26.272Z,89.08
2022-10-25T18:57:30.574Z,89.09
2022-10-25T18:59:33.181Z,88.10
2022-10-25T19:01:35.879Z,88.39
2022-10-25T19:03:39.064Z,89.00
2022-10-25T19:05:42.303Z,88.37
2022-10-25T19:07:45.043Z,88.97
2022-10-25T19:09:47.732Z,88.95
2022-10-25T19:11:51.686Z,88.93
2022-10-25T19:13:55.267Z,89.44
2022-10-25T19:15:58.815Z,89.78
2022-10-25T19:18:01.557Z,89.17
2022-10-25T19:20:04.755Z,89.72
2022-10-25T19:22:07.339Z,89.81
2022-10-25T19:24:13.841Z,89.57
2022-10-25T19:26:19.021Z,90.12
2022-10-25T19:28:23.045Z,89.64
2022-10-25T19:30:25.990Z,89.69
2022-10-25T19:32:30.568Z,89.43
2022-10-25T19:34:33.251Z,89.58
2022-10-25T19:36:35.878Z,89.89
2022-10-25T19:38:39.638Z,90.30
2022-10-25T19:40:45.410Z,90.24
2022-10-25T19:42:48.005Z,89.82
2022-10-25T19:44:53.857Z,90.17
2022-10-25T19:46:56.493Z,90.01
2022-10-25T19:49:00.225Z,90.06
2022-10-25T19:51:06.500Z,89.22
2022-10-25T19:53:09.082Z,89.88
2022-10-25T19:55:11.668Z,89.92
2022-10-25T19:57:14.514Z,90.02
2022-10-25T19:59:17.181Z,89.75
2022-10-25T20:01:23.587Z,90.23
2022-10-25T20:03:26.330Z,89.96
2022-10-25T20:05:29.601Z,90.24
2022-10-25T20:07:32.219Z,90.26
2022-10-25T20:09:34.855Z,90.19
2022-10-25T20:11:37.582Z,90.68
2022-10-25T20:13:40.685Z,90.50
2022-10-25T20:15:50.090Z,90.75
2022-10-25T20:17:54.038Z,90.80
2022-10-25T20:19:56.675Z,91.19
2022-10-25T20:21:59.685Z,90.89
2022-10-25T20:24:04.165Z,90.88
2022-10-25T20:26:14.468Z,90.82
2022-10-25T20:28:17.050Z,91.10
2022-10-25T20:30:19.650Z,91.13
2022-10-25T20:32:22.405Z,91.22
2022-10-25T20:34:26.414Z,91.30
2022-10-25T20:36:29.426Z,91.18
2022-10-25T20:38:32.358Z,91.23
2022-10-25T20:40:35.780Z,91.15
2022-10-25T20:42:38.409Z,90.91
2022-10-25T20:44:41.038Z,90.97
2022-10-25T20:46:43.629Z,91.07
2022-10-25T20:48:46.482Z,91.30
2022-10-25T20:50:50.537Z,91.02
2022-10-25T20:55:16.720Z,91.86
2022-10-25T20:57:19.285Z,92.04
2022-10-25T20:59:21.861Z,91.55
2022-10-25T21:01:24.523Z,91.53
2022-10-25T21:03:29.104Z,91.34
2022-10-25T21:05:31.862Z,91.92
2022-10-25T21:07:35.865Z,91.57
2022-10-25T21:09:38.470Z,91.45
2022-10-25T21:11:41.039Z,91.50
2022-10-25T21:13:43.644Z,91.67
2022-10-25T21:15:47.459Z,91.53
2022-10-25T21:17:50.536Z,91.21
2022-10-25T21:19:53.437Z,91.57
2022-10-25T21:21:56.021Z,91.52
2022-10-25T21:24:00.437Z,91.58
2022-10-25T21:26:05.585Z,92.07
2022-10-25T21:28:08.313Z,92.18
2022-10-25T21:30:11.566Z,92.16
2022-10-25T21:32:14.256Z,92.20
2022-10-25T21:36:21.746Z,92.60
2022-10-25T21:38:24.425Z,92.69
2022-10-25T21:40:28.457Z,92.90
2022-10-25T21:42:32.120Z,93.18
2022-10-25T21:44:35.183Z,92.69
2022-10-25T21:46:37.811Z,92.96
2022-10-25T21:48:40.609Z,92.64
2022-10-25T21:50:43.178Z,92.55
2022-10-25T21:52:45.797Z,92.47
2022-10-25T21:54:48.433Z,92.23
2022-10-25T21:56:52.627Z,91.23
2022-10-25T21:58:55.314Z,91.34
2022-10-25T22:00:57.947Z,91.23
2022-10-25T22:03:00.566Z,91.40
2022-10-25T22:05:03.221Z,91.33
2022-10-25T22:07:05.894Z,91.40
2022-10-25T22:09:08.936Z,91.23
2022-10-25T22:11:14.189Z,91.56
2022-10-25T22:13:18.222Z,91.52
2022-10-25T22:15:20.820Z,91.53
2022-10-25T22:17:23.594Z,91.15
2022-10-25T22:19:26.565Z,91.73
2022-10-25T22:21:30.575Z,91.79
2022-10-25T22:23:34.256Z,91.32
2022-10-25T22:25:36.925Z,91.54
2022-10-25T22:27:39.557Z,91.66
2022-10-25T22:29:43.534Z,91.80
2022-10-25T22:31:46.196Z,91.82
2022-10-25T22:33:53.728Z,91.62
2022-10-25T22:35:56.872Z,91.92
2022-10-25T22:37:59.562Z,91.59
2022-10-25T22:40:02.162Z,91.79
2022-10-25T22:42:11.393Z,91.98
2022-10-25T22:44:14.045Z,91.63
2022-10-25T22:46:22.031Z,91.89
2022-10-25T22:48:24.659Z,92.26
2022-10-25T22:50:27.312Z,92.37
2022-10-25T22:52:30.263Z,92.24
2022-10-25T22:54:32.831Z,92.10
2022-10-25T22:56:35.563Z,92.47
2022-10-25T22:58:39.078Z,91.93
2022-10-25T23:00:41.675Z,92.50
2022-10-25T23:02:45.812Z,92.15
2022-10-25T23:04:48.586Z,92.58
2022-10-25T23:06:51.191Z,92.67
2022-10-25T23:08:53.961Z,91.93
2022-10-25T23:11:01.808Z,92.26
2022-10-25T23:13:04.543Z,92.37
2022-10-25T23:15:08.435Z,92.00
2022-10-25T23:17:11.029Z,91.99
2022-10-25T23:19:15.084Z,92.47
2022-10-25T23:21:19.738Z,92.14
2022-10-25T23:23:23.276Z,91.80
2022-10-25T23:25:25.869Z,91.67
2022-10-25T23:27:29.343Z,91.73
2022-10-25T23:29:31.932Z,91.91
2022-10-25T23:31:34.545Z,91.61
2022-10-25T23:33:37.360Z,91.41
2022-10-25T23:35:42.482Z,91.38
2022-10-25T23:37:45.082Z,91.47
2022-10-25T23:39:47.740Z,90.88
2022-10-25T23:41:51.825Z,91.49
2022-10-25T23:43:54.457Z,91.04
2022-10-25T23:45:57.037Z,91.11
2022-10-25T23:47:59.764Z,91.31
2022-10-25T23:50:02.567Z,91.29
2022-10-25T23:52:06.555Z,91.09
2022-10-25T23:54:09.603Z,91.17
2022-10-25T23:56:13.961Z,91.04
2022-10-25T23:58:16.559Z,91.35
